createdAt,value
2019-03-01T00:01:17.060Z,88.45
2019-03-01T00:04:03.493Z,89.63
2019-03-01T00:07:38.411Z,89.74
2019-03-01T00:11:14.324Z,90.26
2019-03-01T00:14:37.417Z,90.80
2019-03-01T00:18:08.704Z,90.69
2019-03-01T00:21:14.050Z,91.03
2019-03-01T00:24:20.804Z,90.41
2019-03-01T00:27:10.385Z,90.58
2019-03-01T00:30:32.326Z,90.56
2019-03-01T00:34:05.864Z,90.43
2019-03-01T00:37:02.127Z,90.91
2019-03-01T00:40:06.851Z,91.25
2019-03-01T00:43:27.702Z,91.43
2019-03-01T00:45:59.543Z,91.74
2019-03-01T00:48:31.371Z,92.25
2019-03-01T00:51:03.163Z,92.38
2019-03-01T00:53:35.008Z,92.66
2019-03-01T00:56:06.824Z,92.41
2019-03-01T00:58:38.632Z,92.53
2019-03-01T01:01:10.459Z,92.21
2019-03-01T01:03:42.291Z,92.46
2019-03-01T01:06:15.058Z,92.31
2019-03-01T01:08:46.889Z,92.22
2019-03-01T01:11:18.741Z,92.43
2019-03-01T01:13:50.614Z,91.83
2019-03-01T01:16:22.468Z,92.63
2019-03-01T01:18:54.286Z,92.49
2019-03-01T01:21:26.114Z,92.80
2019-03-01T01:23:57.940Z,92.68
2019-03-01T01:26:29.779Z,92.89
2019-03-01T01:29:01.653Z,93.41
2019-03-01T01:31:33.478Z,94.08
2019-03-01T01:34:05.300Z,94.43
2019-03-01T01:36:37.151Z,95.28
2019-03-01T01:39:10.735Z,95.34
2019-03-01T01:41:42.579Z,95.45
2019-03-01T01:44:14.406Z,95.70
2019-03-01T01:46:46.244Z,96.08
2019-03-01T01:49:19.050Z,96.44
2019-03-01T01:51:50.991Z,96.15
2019-03-01T01:54:22.899Z,96.13
2019-03-01T01:56:54.709Z,96.78
2019-03-01T01:59:26.514Z,97.70
2019-03-01T02:01:58.337Z,97.56
2019-03-01T02:04:30.192Z,98.31
2019-03-01T02:07:02.008Z,98.01
2019-03-01T02:09:34.016Z,98.46
2019-03-01T02:12:05.862Z,98.07
2019-03-01T02:14:37.710Z,98.14
2019-03-01T02:17:09.595Z,98.36
2019-03-01T02:19:41.414Z,97.67
2019-03-01T02:22:13.269Z,98.38
2019-03-01T02:24:45.201Z,98.53
2019-03-01T02:27:26.218Z,98.17
2019-03-01T02:29:59.199Z,97.36
2019-03-01T02:32:50.565Z,97.03
2019-03-01T02:35:31.310Z,97.50
2019-03-01T02:38:03.134Z,97.32
2019-03-01T02:40:39.425Z,97.39
2019-03-01T02:43:11.226Z,97.51
2019-03-01T02:45:43.097Z,96.87
2019-03-01T02:48:14.977Z,96.74
2019-03-01T02:50:46.787Z,97.06
2019-03-01T02:53:18.659Z,97.56
2019-03-01T02:55:50.463Z,97.23
2019-03-01T02:58:22.302Z,97.29
2019-03-01T03:00:54.260Z,97.51
2019-03-01T03:03:26.124Z,97.68
2019-03-01T03:06:08.689Z,98.12
2019-03-01T03:08:40.570Z,98.44
2019-03-01T03:11:12.427Z,98.35
2019-03-01T03:13:44.313Z,98.39
2019-03-01T03:16:16.214Z,98.36
2019-03-01T03:18:48.062Z,98.07
2019-03-01T03:21:19.917Z,98.15
2019-03-01T03:23:51.787Z,97.00
2019-03-01T03:26:23.639Z,97.40
2019-03-01T03:28:55.495Z,97.96
2019-03-01T03:31:27.188Z,97.51
2019-03-01T03:33:59.047Z,97.13
2019-03-01T03:36:30.950Z,96.69
2019-03-01T03:39:02.769Z,97.22
2019-03-01T03:41:34.716Z,97.82
2019-03-01T03:44:06.580Z,98.28
2019-03-01T03:46:38.424Z,98.07
2019-03-01T03:49:10.299Z,98.55
2019-03-01T03:51:42.176Z,99.69
2019-03-01T03:54:14.032Z,100.00
2019-03-01T03:56:45.933Z,100.00
2019-03-01T03:59:17.752Z,100.00
2019-03-01T04:01:49.627Z,100.00
2019-03-01T04:04:21.442Z,99.95
2019-03-01T04:06:53.313Z,100.00
2019-03-01T04:09:25.173Z,99.92
2019-03-01T04:11:57.027Z,100.00
2019-03-01T04:14:28.990Z,100.00
2019-03-01T04:17:00.840Z,100.00
2019-03-01T04:19:32.670Z,100.00
2019-03-01T04:22:04.575Z,100.00
2019-03-01T04:24:36.368Z,100.00
2019-03-01T04:27:08.248Z,100.00
2019-03-01T04:29:40.158Z,100.00
2019-03-01T04:32:11.963Z,100.00
2019-03-01T04:34:43.784Z,100.00
2019-03-01T04:37:15.698Z,100.00
2019-03-01T04:39:47.556Z,100.00
2019-03-01T04:42:19.364Z,100.00
2019-03-01T04:44:51.243Z,100.00
2019-03-01T04:47:23.081Z,99.90
2019-03-01T04:49:54.939Z,99.58
2019-03-01T04:52:44.690Z,99.52
2019-03-01T04:55:22.931Z,98.58
2019-03-01T04:57:54.781Z,98.00
2019-03-01T05:00:27.858Z,98.43
2019-03-01T05:03:01.301Z,98.45
2019-03-01T05:05:33.163Z,98.13
2019-03-01T05:08:05.089Z,97.62
2019-03-01T05:10:36.904Z,97.68
2019-03-01T05:13:08.740Z,97.88
2019-03-01T05:15:40.552Z,97.61
2019-03-01T05:18:12.416Z,97.52
2019-03-01T05:20:44.205Z,97.83
2019-03-01T05:23:16.041Z,98.14
2019-03-01T05:25:47.892Z,97.88
2019-03-01T05:28:19.728Z,98.05
2019-03-01T05:30:51.603Z,97.75
2019-03-01T05:33:24.315Z,97.99
2019-03-01T05:35:56.139Z,97.99
2019-03-01T05:38:27.968Z,98.21
2019-03-01T05:40:59.858Z,98.05
2019-03-01T05:43:31.693Z,98.32
2019-03-01T05:46:03.618Z,98.43
2019-03-01T05:48:35.455Z,98.79
2019-03-01T05:51:07.371Z,98.41
2019-03-01T05:53:39.254Z,98.91
2019-03-01T05:56:11.104Z,99.25
2019-03-01T05:59:07.191Z,98.49
2019-03-01T06:01:49.821Z,97.78
2019-03-01T06:04:33.840Z,98.31
2019-03-01T06:08:04.933Z,98.29
2019-03-01T06:11:02.615Z,98.16
2019-03-01T06:14:35.094Z,98.04
2019-03-01T06:18:00.649Z,98.58
2019-03-01T06:21:14.875Z,98.29
2019-03-01T06:24:23.222Z,98.87
2019-03-01T06:27:57.586Z,99.17
2019-03-01T06:31:00.835Z,98.03
2019-03-01T06:34:08.643Z,97.24
2019-03-01T06:37:18.989Z,97.53
2019-03-01T06:40:32.413Z,98.18
2019-03-01T06:44:08.858Z,98.07
2019-03-01T06:47:28.215Z,97.95
2019-03-01T06:50:05.539Z,98.04
2019-03-01T06:52:37.368Z,97.95
2019-03-01T06:55:32.027Z,98.01
2019-03-01T06:58:03.833Z,97.62
2019-03-01T07:00:47.310Z,97.51
2019-03-01T07:03:13.595Z,97.21
2019-03-01T07:05:45.536Z,97.32
2019-03-01T07:08:17.404Z,97.14
2019-03-01T07:10:49.296Z,97.25
2019-03-01T07:13:21.296Z,97.17
2019-03-01T07:15:53.148Z,97.15
2019-03-01T07:18:25.019Z,96.73
2019-03-01T07:20:56.910Z,96.59
2019-03-01T07:23:36.570Z,96.33
2019-03-01T07:26:02.364Z,96.29
2019-03-01T07:28:34.183Z,96.39
2019-03-01T07:31:07.092Z,96.27
2019-03-01T07:33:38.974Z,96.20
2019-03-01T07:36:10.795Z,96.21
2019-03-01T07:38:42.623Z,96.16
2019-03-01T07:41:14.524Z,96.02
2019-03-01T07:43:46.378Z,95.40
2019-03-01T07:46:18.392Z,94.90
2019-03-01T07:48:50.258Z,94.75
2019-03-01T07:51:27.020Z,94.91
2019-03-01T07:53:58.750Z,95.03
2019-03-01T07:56:30.580Z,94.71
2019-03-01T07:59:02.459Z,94.22
2019-03-01T08:01:34.286Z,93.41
2019-03-01T08:04:06.109Z,93.26
2019-03-01T08:06:38.043Z,92.74
2019-03-01T08:09:14.348Z,92.47
2019-03-01T08:11:46.257Z,92.13
2019-03-01T08:14:18.114Z,91.92
2019-03-01T08:16:52.615Z,92.18
2019-03-01T08:19:23.700Z,92.39
2019-03-01T08:21:55.577Z,92.28
2019-03-01T08:24:27.551Z,92.07
2019-03-01T08:26:59.564Z,92.08
2019-03-01T08:29:34.046Z,91.26
2019-03-01T08:32:04.998Z,90.86
2019-03-01T08:34:36.861Z,90.57
2019-03-01T08:37:08.733Z,90.59
2019-03-01T08:39:40.783Z,90.10
2019-03-01T08:42:12.694Z,90.15
2019-03-01T08:44:44.520Z,89.87
2019-03-01T08:47:20.325Z,89.79
2019-03-01T08:49:49.889Z,90.81
2019-03-01T08:52:21.754Z,90.33
2019-03-01T08:54:53.637Z,90.40
2019-03-01T08:57:26.605Z,90.33
2019-03-01T08:59:59.243Z,89.77
2019-03-01T09:02:31.088Z,89.67
2019-03-01T09:05:05.237Z,89.84
2019-03-01T09:07:36.535Z,89.59
2019-03-01T09:10:10.286Z,89.59
2019-03-01T09:12:42.876Z,89.51
2019-03-01T09:15:15.696Z,89.47
2019-03-01T09:17:47.573Z,89.62
2019-03-01T09:20:19.390Z,89.66
2019-03-01T09:22:51.278Z,90.10
2019-03-01T09:25:23.169Z,90.50
2019-03-01T09:27:55.062Z,90.57
2019-03-01T09:30:27.060Z,91.66
2019-03-01T09:32:58.892Z,92.19
2019-03-01T09:35:43.204Z,92.52
2019-03-01T09:38:14.748Z,92.69
2019-03-01T09:40:46.753Z,93.10
2019-03-01T09:43:18.691Z,93.38
2019-03-01T09:45:50.559Z,93.40
2019-03-01T09:48:22.432Z,93.51
2019-03-01T09:50:54.291Z,93.55
2019-03-01T09:53:26.383Z,93.68
2019-03-01T09:56:00.020Z,93.65
2019-03-01T09:58:32.612Z,93.78
2019-03-01T10:01:14.573Z,93.97
2019-03-01T10:03:47.316Z,94.25
2019-03-01T10:06:19.145Z,94.05
2019-03-01T10:08:50.996Z,93.92
2019-03-01T10:11:22.909Z,93.74
2019-03-01T10:13:54.790Z,93.84
2019-03-01T10:16:26.665Z,93.94
2019-03-01T10:18:58.546Z,93.82
2019-03-01T10:21:30.442Z,93.47
2019-03-01T10:24:02.325Z,93.50
2019-03-01T10:26:34.207Z,93.68
2019-03-01T10:29:06.051Z,94.03
2019-03-01T10:31:37.952Z,94.07
2019-03-01T10:34:09.845Z,93.71
2019-03-01T10:36:41.731Z,93.94
2019-03-01T10:39:16.349Z,93.59
2019-03-01T10:41:48.762Z,93.81
2019-03-01T10:44:20.708Z,94.16
2019-03-01T10:46:52.571Z,94.41
2019-03-01T10:49:24.416Z,94.50
2019-03-01T10:51:56.291Z,94.65
2019-03-01T10:54:28.183Z,94.80
2019-03-01T10:57:00.059Z,94.74
2019-03-01T10:59:33.575Z,94.98
2019-03-01T11:02:05.436Z,94.91
2019-03-01T11:04:37.315Z,95.16
2019-03-01T11:07:09.170Z,95.32
2019-03-01T11:09:41.047Z,94.85
2019-03-01T11:12:12.953Z,95.16
2019-03-01T11:14:44.814Z,95.14
2019-03-01T11:17:16.627Z,94.87
2019-03-01T11:19:48.539Z,94.85
2019-03-01T11:22:20.399Z,95.31
2019-03-01T11:24:52.303Z,95.41
2019-03-01T11:27:24.097Z,95.68
2019-03-01T11:29:55.959Z,95.51
2019-03-01T11:32:28.782Z,95.77
2019-03-01T11:35:00.807Z,95.79
2019-03-01T11:37:33.537Z,95.88
2019-03-01T11:40:08.658Z,95.87
2019-03-01T11:42:40.720Z,95.94
2019-03-01T11:45:12.769Z,96.57
2019-03-01T11:47:45.600Z,96.68
2019-03-01T11:50:20.425Z,96.77
2019-03-01T11:52:52.276Z,96.31
2019-03-01T11:55:24.361Z,96.50
2019-03-01T11:57:56.279Z,96.28
2019-03-01T12:00:28.133Z,96.64
2019-03-01T12:03:00.080Z,97.37
2019-03-01T12:05:31.975Z,97.18
2019-03-01T12:08:03.824Z,97.62
2019-03-01T12:10:35.657Z,97.68
2019-03-01T12:13:07.521Z,97.39
2019-03-01T12:15:39.405Z,97.58
2019-03-01T12:18:11.281Z,98.01
2019-03-01T12:20:43.155Z,98.28
2019-03-01T12:23:15.070Z,98.36
2019-03-01T12:25:46.890Z,98.28
2019-03-01T12:28:18.811Z,97.62
2019-03-01T12:30:51.544Z,95.89
2019-03-01T12:33:23.425Z,94.78
2019-03-01T12:35:55.257Z,94.22
2019-03-01T12:38:27.155Z,94.55
2019-03-01T12:40:59.082Z,94.81
2019-03-01T12:43:30.966Z,95.91
2019-03-01T12:46:02.965Z,95.94
2019-03-01T12:48:34.844Z,94.30
2019-03-01T12:51:06.770Z,94.40
2019-03-01T12:53:38.652Z,93.72
2019-03-01T12:56:10.526Z,93.46
2019-03-01T12:58:42.381Z,94.07
2019-03-01T13:01:14.291Z,95.06
2019-03-01T13:03:46.116Z,94.66
2019-03-01T13:06:17.987Z,94.52
2019-03-01T13:08:51.587Z,94.36
2019-03-01T13:11:23.458Z,94.32
2019-03-01T13:13:55.301Z,93.34
2019-03-01T13:16:27.437Z,92.31
2019-03-01T13:18:59.333Z,91.34
2019-03-01T13:21:31.199Z,92.07
2019-03-01T13:24:03.069Z,93.05
2019-03-01T13:26:37.678Z,92.95
2019-03-01T13:29:08.496Z,93.12
2019-03-01T13:31:40.355Z,92.58
2019-03-01T13:34:13.864Z,92.45
2019-03-01T13:36:45.769Z,92.86
2019-03-01T13:39:17.619Z,92.64
2019-03-01T13:41:49.410Z,93.34
2019-03-01T13:44:21.315Z,93.18
2019-03-01T13:46:53.175Z,92.32
2019-03-01T13:49:26.799Z,91.33
2019-03-01T13:51:58.621Z,92.24
2019-03-01T13:54:30.494Z,91.88
2019-03-01T13:57:02.524Z,90.97
2019-03-01T13:59:37.489Z,90.87
2019-03-01T14:02:08.508Z,90.05
2019-03-01T14:04:41.358Z,90.43
2019-03-01T14:07:13.266Z,90.48
2019-03-01T14:09:45.288Z,90.21
2019-03-01T14:12:17.122Z,90.72
2019-03-01T14:14:49.017Z,90.82
2019-03-01T14:17:21.090Z,90.71
2019-03-01T14:19:54.496Z,90.71
2019-03-01T14:22:26.380Z,90.90
2019-03-01T14:24:58.239Z,91.19
2019-03-01T14:27:30.428Z,90.95
2019-03-01T14:30:02.367Z,90.87
2019-03-01T14:32:34.313Z,91.28
2019-03-01T14:35:06.412Z,90.74
2019-03-01T14:37:38.304Z,89.94
2019-03-01T14:40:12.228Z,89.64
2019-03-01T14:42:47.463Z,89.09
2019-03-01T14:45:21.013Z,89.04
2019-03-01T14:47:53.162Z,88.83
2019-03-01T14:50:29.957Z,87.66
2019-03-01T14:53:00.304Z,87.78
2019-03-01T14:55:39.325Z,87.23
2019-03-01T14:58:37.331Z,86.66
2019-03-01T15:01:35.162Z,86.92
2019-03-01T15:04:07.096Z,86.06
2019-03-01T15:06:38.935Z,86.42
2019-03-01T15:09:11.610Z,86.07
2019-03-01T15:11:44.331Z,85.06
2019-03-01T15:14:17.156Z,84.40
2019-03-01T15:16:49.061Z,84.00
2019-03-01T15:19:20.907Z,83.10
2019-03-01T15:21:52.941Z,82.70
2019-03-01T15:24:24.840Z,82.79
2019-03-01T15:27:00.066Z,82.84
2019-03-01T15:29:32.199Z,81.77
2019-03-01T15:32:04.023Z,82.13
2019-03-01T15:34:35.910Z,82.10
2019-03-01T15:37:07.823Z,81.98
2019-03-01T15:39:39.731Z,81.99
2019-03-01T15:42:14.327Z,81.44
2019-03-01T15:44:45.193Z,81.88
2019-03-01T15:47:17.104Z,81.09
2019-03-01T15:49:51.378Z,81.42
2019-03-01T15:52:22.540Z,81.77
2019-03-01T15:54:54.449Z,82.33
2019-03-01T15:57:26.382Z,82.58
2019-03-01T15:59:58.270Z,81.32
2019-03-01T16:02:30.232Z,80.61
2019-03-01T16:05:02.143Z,80.20
2019-03-01T16:07:34.082Z,80.25
2019-03-01T16:10:07.187Z,80.47
2019-03-01T16:12:39.133Z,81.12
2019-03-01T16:15:12.858Z,80.95
2019-03-01T16:17:44.845Z,82.02
2019-03-01T16:20:16.740Z,82.47
2019-03-01T16:22:51.022Z,82.24
2019-03-01T16:25:22.467Z,82.58
2019-03-01T16:27:55.152Z,83.42
2019-03-01T16:30:27.123Z,84.02
2019-03-01T16:32:59.013Z,84.18
2019-03-01T16:35:30.881Z,84.23
2019-03-01T16:38:03.246Z,84.23
2019-03-01T16:40:35.210Z,84.11
2019-03-01T16:43:07.100Z,84.24
2019-03-01T16:45:38.963Z,84.12
2019-03-01T16:48:13.587Z,84.38
2019-03-01T16:50:45.041Z,84.55
2019-03-01T16:53:16.922Z,84.86
2019-03-01T16:55:50.457Z,85.56
2019-03-01T16:58:24.454Z,85.78
2019-03-01T17:00:56.124Z,86.17
2019-03-01T17:03:28.092Z,86.21
2019-03-01T17:05:59.976Z,86.54
2019-03-01T17:08:31.892Z,86.82
2019-03-01T17:11:05.783Z,86.53
2019-03-01T17:13:37.364Z,87.35
2019-03-01T17:16:09.250Z,88.08
2019-03-01T17:18:41.150Z,88.24
2019-03-01T17:21:15.891Z,88.33
2019-03-01T17:23:46.515Z,88.42
2019-03-01T17:26:18.514Z,87.78
2019-03-01T17:28:50.373Z,87.92
2019-03-01T17:31:23.161Z,87.63
2019-03-01T17:33:55.880Z,88.00
2019-03-01T17:36:27.734Z,87.82
2019-03-01T17:39:20.138Z,87.58
2019-03-01T17:41:51.843Z,87.50
2019-03-01T17:44:24.757Z,87.44
2019-03-01T17:46:56.650Z,87.19
2019-03-01T17:49:29.710Z,86.93
2019-03-01T17:52:02.128Z,86.50
2019-03-01T17:54:34.093Z,86.95
2019-03-01T17:57:06.037Z,87.46
2019-03-01T17:59:37.896Z,87.65
2019-03-01T18:02:12.084Z,87.50
2019-03-01T18:04:43.317Z,87.40
2019-03-01T18:07:15.198Z,87.10
2019-03-01T18:09:47.172Z,86.53
2019-03-01T18:12:20.604Z,86.39
2019-03-01T18:14:52.660Z,85.84
2019-03-01T18:17:24.549Z,84.28
2019-03-01T18:19:58.759Z,83.29
2019-03-01T18:22:30.096Z,82.14
2019-03-01T18:25:02.128Z,82.11
2019-03-01T18:27:33.957Z,80.79
2019-03-01T18:30:16.125Z,80.19
2019-03-01T18:32:46.295Z,79.38
2019-03-01T18:35:18.225Z,79.83
2019-03-01T18:37:51.548Z,79.65
2019-03-01T18:40:23.681Z,78.05
2019-03-01T18:42:55.046Z,78.73
2019-03-01T18:45:26.400Z,78.17
2019-03-01T18:47:57.689Z,78.24
2019-03-01T18:50:32.275Z,78.47
2019-03-01T18:53:04.439Z,78.18
2019-03-01T18:55:36.266Z,78.66
2019-03-01T18:58:10.539Z,78.55
2019-03-01T19:00:42.284Z,78.56
2019-03-01T19:03:14.686Z,78.37
2019-03-01T19:05:46.634Z,78.36
2019-03-01T19:08:18.493Z,77.66
2019-03-01T19:10:54.201Z,76.91
2019-03-01T19:13:25.589Z,77.06
2019-03-01T19:15:57.798Z,77.28
2019-03-01T19:18:29.631Z,76.79
2019-03-01T19:21:01.470Z,74.71
2019-03-01T19:23:33.392Z,77.72
2019-03-01T19:26:05.215Z,81.13
2019-03-01T19:28:37.051Z,80.90
2019-03-01T19:31:08.911Z,79.49
2019-03-01T19:33:41.726Z,76.26
2019-03-01T19:36:13.688Z,77.13
2019-03-01T19:38:46.473Z,73.80
2019-03-01T19:41:20.048Z,71.46
2019-03-01T19:43:57.461Z,70.66
2019-03-01T19:46:26.607Z,71.36
2019-03-01T19:48:58.603Z,71.35
2019-03-01T19:51:33.800Z,71.73
2019-03-01T19:54:04.082Z,72.18
2019-03-01T19:56:35.961Z,72.38
2019-03-01T19:59:07.833Z,71.61
2019-03-01T20:01:39.690Z,71.68
2019-03-01T20:04:11.555Z,71.72
2019-03-01T20:06:44.473Z,71.83
2019-03-01T20:09:16.374Z,71.78
2019-03-01T20:11:49.289Z,71.63
2019-03-01T20:14:21.202Z,72.17
2019-03-01T20:16:54.881Z,72.19
2019-03-01T20:19:26.711Z,72.41
2019-03-01T20:21:58.592Z,72.83
2019-03-01T20:24:30.633Z,73.11
2019-03-01T20:27:03.074Z,72.99
2019-03-01T20:29:35.729Z,72.88
2019-03-01T20:32:07.601Z,72.92
2019-03-01T20:34:39.497Z,73.12
2019-03-01T20:37:11.445Z,73.10
2019-03-01T20:39:43.337Z,73.13
2019-03-01T20:42:17.763Z,72.68
2019-03-01T20:44:50.280Z,72.41
2019-03-01T20:47:23.090Z,72.49
2019-03-01T20:49:54.994Z,72.58
2019-03-01T20:52:27.028Z,72.80
2019-03-01T20:55:00.589Z,72.76
2019-03-01T20:57:32.789Z,72.60
2019-03-01T21:00:05.002Z,72.76
2019-03-01T21:02:36.854Z,72.79
2019-03-01T21:05:09.778Z,72.69
2019-03-01T21:07:41.743Z,72.88
2019-03-01T21:10:21.831Z,72.72
2019-03-01T21:12:53.789Z,72.71
2019-03-01T21:15:25.692Z,72.92
2019-03-01T21:17:58.661Z,73.09
2019-03-01T21:20:30.779Z,73.14
2019-03-01T21:23:02.638Z,73.17
2019-03-01T21:25:35.896Z,73.06
2019-03-01T21:28:08.240Z,72.71
2019-03-01T21:30:41.097Z,72.69
2019-03-01T21:33:12.942Z,73.80
2019-03-01T21:35:47.881Z,75.04
2019-03-01T21:38:18.480Z,75.58
2019-03-01T21:40:50.365Z,75.82
2019-03-01T21:43:22.281Z,75.49
2019-03-01T21:45:55.492Z,76.10
2019-03-01T21:48:27.748Z,76.31
2019-03-01T21:50:59.594Z,76.34
2019-03-01T21:53:31.512Z,76.57
2019-03-01T21:56:04.585Z,76.70
2019-03-01T21:58:38.587Z,76.61
2019-03-01T22:01:10.660Z,76.22
2019-03-01T22:03:42.523Z,75.63
2019-03-01T22:06:14.398Z,73.55
2019-03-01T22:08:48.744Z,73.01
2019-03-01T22:11:20.937Z,72.68
2019-03-01T22:13:52.960Z,71.87
2019-03-01T22:16:24.838Z,71.39
2019-03-01T22:18:58.747Z,71.16
2019-03-01T22:21:30.315Z,70.77
2019-03-01T22:24:02.168Z,70.36
2019-03-01T22:26:34.005Z,70.06
2019-03-01T22:29:08.815Z,70.25
2019-03-01T22:31:39.774Z,70.44
2019-03-01T22:34:11.737Z,69.82
2019-03-01T22:36:43.564Z,69.52
2019-03-01T22:39:16.619Z,69.48
2019-03-01T22:41:48.984Z,68.91
2019-03-01T22:44:20.862Z,69.18
2019-03-01T22:46:52.757Z,69.09
2019-03-01T22:49:24.653Z,68.96
2019-03-01T22:51:56.538Z,68.95
2019-03-01T22:54:28.392Z,69.09
2019-03-01T22:57:00.300Z,69.17
2019-03-01T22:59:32.159Z,68.70
2019-03-01T23:02:08.062Z,68.74
2019-03-01T23:04:40.067Z,68.94
2019-03-01T23:07:11.931Z,69.23
2019-03-01T23:09:46.525Z,69.20
2019-03-01T23:12:17.320Z,69.51
2019-03-01T23:14:49.171Z,69.58
2019-03-01T23:17:21.008Z,69.67
2019-03-01T23:19:52.901Z,69.78
2019-03-01T23:22:24.847Z,69.58
2019-03-01T23:24:56.711Z,69.59
2019-03-01T23:27:31.672Z,69.87
2019-03-01T23:30:02.138Z,69.94
2019-03-01T23:32:34.004Z,69.84
2019-03-01T23:35:05.862Z,69.90
2019-03-01T23:37:38.841Z,69.92
2019-03-01T23:40:11.305Z,69.68
2019-03-01T23:42:43.296Z,69.71
2019-03-01T23:45:17.431Z,69.61
2019-03-01T23:47:48.749Z,69.70
2019-03-01T23:50:20.593Z,69.80
2019-03-01T23:52:54.916Z,69.62
2019-03-01T23:55:26.413Z,69.65
2019-03-01T23:58:06.281Z,69.52
